KBOW/BOW METAR and TAF weather

Enter ICAO airport designator
Station Type Date Time Source
KBOW METAR 2018/06/25 16:45 UTC NOAA

KBOW 251645Z 11009KT 10SM BKN030 30/22 A3012


Station Type Date Time Source
KBOW Decoded METAR 2018/06/25 16:45 UTC NOAA

Bartow Municipal, FL, United States (KBOW) 27-57N 081-47W
Jun 25, 2018 - 12:45 PM EDT / 2018.06.25 1645 UTC
Wind: from the ESE (110 degrees) at 10 MPH (9 KT):0
Visibility: 10 mile(s):0
Sky conditions: mostly cloudy
Temperature: 86 F (30 C)
Heat index: 91.8 F (33.2 C):1
Dew Point: 71 F (22 C)
Relative Humidity: 62%
Pressure (altimeter): 30.12 in. Hg (1019 hPa)
ob: KBOW 251645Z 11009KT 10SM BKN030 30/22 A3012
cycle: 17

Station Type Date Time Source
KBOW TAF UTC NOAA

Error!


Example: see airport list